createdAt,value
2022-09-23T00:01:21.339Z,7.43
2022-09-23T00:03:53.881Z,7.40
2022-09-23T00:06:29.805Z,7.42
2022-09-23T00:09:02.084Z,7.43
2022-09-23T00:11:34.397Z,7.40
2022-09-23T00:14:06.709Z,7.35
2022-09-23T00:16:40.147Z,7.33
2022-09-23T00:19:12.555Z,7.31
2022-09-23T00:21:44.887Z,7.25
2022-09-23T00:24:17.223Z,7.25
2022-09-23T00:26:49.527Z,7.22
2022-09-23T00:29:23.556Z,7.22
2022-09-23T00:31:55.896Z,7.23
2022-09-23T00:34:28.173Z,7.25
2022-09-23T00:37:00.486Z,7.24
2022-09-23T00:39:32.780Z,7.22
2022-09-23T00:42:05.304Z,7.22
2022-09-23T00:44:40.644Z,7.20
2022-09-23T00:47:22.140Z,7.17
2022-09-23T00:50:09.805Z,7.15
2022-09-23T00:52:42.216Z,7.17
2022-09-23T00:55:19.471Z,7.17
2022-09-23T00:57:54.553Z,7.19
2022-09-23T01:00:27.030Z,7.17
2022-09-23T01:03:00.437Z,7.17
2022-09-23T01:05:36.562Z,7.19
2022-09-23T01:08:10.080Z,7.18
2022-09-23T01:10:54.516Z,7.15
2022-09-23T01:13:32.172Z,7.11
2022-09-23T01:16:13.558Z,7.07
2022-09-23T01:18:54.200Z,7.01
2022-09-23T01:21:26.531Z,6.95
2022-09-23T01:24:12.497Z,6.94
2022-09-23T01:27:04.344Z,6.91
2022-09-23T01:29:45.575Z,6.84
2022-09-23T01:32:17.830Z,6.79
2022-09-23T01:34:56.846Z,6.77
2022-09-23T01:37:37.603Z,6.74
2022-09-23T01:40:14.615Z,6.71
2022-09-23T01:42:51.090Z,6.73
2022-09-23T01:45:29.061Z,6.77
2022-09-23T01:48:04.988Z,6.78
2022-09-23T01:50:57.594Z,6.79
2022-09-23T01:53:35.567Z,6.76
2022-09-23T01:56:15.121Z,6.72
2022-09-23T01:58:54.961Z,6.74
2022-09-23T02:01:33.001Z,6.76
2022-09-23T02:04:09.683Z,6.76
2022-09-23T02:06:45.329Z,6.76
2022-09-23T02:09:24.842Z,6.78
2022-09-23T02:12:02.117Z,6.79
2022-09-23T02:14:50.465Z,6.81
2022-09-23T02:17:31.024Z,6.81
2022-09-23T02:20:06.032Z,6.84
2022-09-23T02:22:48.409Z,6.84
2022-09-23T02:25:23.260Z,6.89
2022-09-23T02:27:59.983Z,6.93
2022-09-23T02:30:39.707Z,6.96
2022-09-23T02:33:18.473Z,7.00
2022-09-23T02:36:08.876Z,7.04
2022-09-23T02:38:45.130Z,7.09
2022-09-23T02:41:22.915Z,7.13
2022-09-23T02:44:01.215Z,7.15
2022-09-23T02:46:33.861Z,7.14
2022-09-23T02:49:13.601Z,7.18
2022-09-23T02:51:46.534Z,7.17
2022-09-23T02:54:20.880Z,7.15
2022-09-23T02:56:53.652Z,7.16
2022-09-23T02:59:25.964Z,7.14
2022-09-23T03:01:58.390Z,7.12
2022-09-23T03:04:50.339Z,7.06
2022-09-23T03:07:25.601Z,6.98
2022-09-23T03:10:03.904Z,6.93
2022-09-23T03:12:52.946Z,6.88
2022-09-23T03:15:37.476Z,6.87
2022-09-23T03:18:13.059Z,6.90
2022-09-23T03:20:50.400Z,6.93
2022-09-23T03:23:25.890Z,6.91
2022-09-23T03:25:59.897Z,6.91
2022-09-23T03:28:35.398Z,6.88
2022-09-23T03:31:08.280Z,6.87
2022-09-23T03:33:43.344Z,6.84
2022-09-23T03:36:37.368Z,6.78
2022-09-23T03:39:12.653Z,6.77
2022-09-23T03:41:50.808Z,6.74
2022-09-23T03:44:23.412Z,6.71
2022-09-23T03:46:59.340Z,6.69
2022-09-23T03:49:34.907Z,6.69
2022-09-23T03:52:07.230Z,6.69
2022-09-23T03:54:40.807Z,6.69
2022-09-23T03:57:15.772Z,6.69
2022-09-23T03:59:49.333Z,6.65
2022-09-23T04:02:21.751Z,6.59
2022-09-23T04:04:54.720Z,6.60
2022-09-23T04:07:27.096Z,6.62
2022-09-23T04:09:59.383Z,6.62
2022-09-23T04:12:31.654Z,6.62
2022-09-23T04:15:04.372Z,6.62
2022-09-23T04:17:36.688Z,6.67
2022-09-23T04:20:09.200Z,6.69
2022-09-23T04:22:41.470Z,6.74
2022-09-23T04:25:13.806Z,6.77
2022-09-23T04:27:46.077Z,6.79
2022-09-23T04:30:18.652Z,6.80
2022-09-23T04:32:52.146Z,6.84
2022-09-23T04:35:24.550Z,6.82
2022-09-23T04:37:57.908Z,6.82
2022-09-23T04:40:30.324Z,6.83
2022-09-23T04:43:02.688Z,6.86
2022-09-23T04:45:35.166Z,6.88
2022-09-23T04:48:09.526Z,6.85
2022-09-23T04:50:42.091Z,6.85
2022-09-23T04:53:16.422Z,6.86
2022-09-23T04:55:48.783Z,6.89
2022-09-23T04:58:22.953Z,6.89
2022-09-23T05:00:55.298Z,6.90
2022-09-23T05:03:27.605Z,6.90
2022-09-23T05:05:59.928Z,6.90
2022-09-23T05:08:35.603Z,6.87
2022-09-23T05:11:08.956Z,6.88
2022-09-23T05:13:41.332Z,6.86
2022-09-23T05:16:14.204Z,6.84
2022-09-23T05:18:48.130Z,6.85
2022-09-23T05:21:21.912Z,6.88
2022-09-23T05:23:55.457Z,6.91
2022-09-23T05:26:29.456Z,6.92
2022-09-23T05:29:01.763Z,6.93
2022-09-23T05:31:34.767Z,6.96
2022-09-23T05:34:07.299Z,6.99
2022-09-23T05:36:39.594Z,7.04
2022-09-23T05:39:11.882Z,7.08
2022-09-23T05:41:44.454Z,7.14
2022-09-23T05:44:16.988Z,7.18
2022-09-23T05:46:49.381Z,7.24
2022-09-23T05:49:33.028Z,7.32
2022-09-23T05:52:14.079Z,7.42
2022-09-23T05:54:46.399Z,7.50
2022-09-23T05:57:19.766Z,7.58
2022-09-23T05:59:52.096Z,7.66
2022-09-23T06:02:24.430Z,7.76
2022-09-23T06:04:56.759Z,7.87
2022-09-23T06:07:29.874Z,7.95
2022-09-23T06:10:02.199Z,8.04
2022-09-23T06:12:35.767Z,8.15
2022-09-23T06:15:08.237Z,8.25
2022-09-23T06:17:40.639Z,8.39
2022-09-23T06:20:12.962Z,8.44
2022-09-23T06:22:45.523Z,8.54
2022-09-23T06:25:19.522Z,8.60
2022-09-23T06:27:55.463Z,8.70
2022-09-23T06:30:28.517Z,8.75
2022-09-23T06:33:01.864Z,8.81
2022-09-23T06:35:34.201Z,8.89
2022-09-23T06:38:06.519Z,8.97
2022-09-23T06:40:38.959Z,9.09
2022-09-23T06:43:11.302Z,9.21
2022-09-23T06:45:43.774Z,9.31
2022-09-23T06:48:16.092Z,9.41
2022-09-23T06:50:49.290Z,9.52
2022-09-23T06:53:24.542Z,9.57
2022-09-23T06:56:02.384Z,9.66
2022-09-23T06:58:35.819Z,9.74
2022-09-23T07:01:09.444Z,9.88
2022-09-23T07:03:42.186Z,9.95
2022-09-23T07:06:14.790Z,9.98
2022-09-23T07:08:48.146Z,10.14
2022-09-23T07:11:22.672Z,10.33
2022-09-23T07:13:54.970Z,10.52
2022-09-23T07:16:27.320Z,10.69
2022-09-23T07:18:59.711Z,10.85
2022-09-23T07:21:32.110Z,10.89
2022-09-23T07:24:05.006Z,11.02
2022-09-23T07:26:38.609Z,11.20
2022-09-23T07:29:13.336Z,11.37
2022-09-23T07:31:45.759Z,11.62
2022-09-23T07:34:20.958Z,11.91
2022-09-23T07:36:53.771Z,12.06
2022-09-23T07:39:26.224Z,12.10
2022-09-23T07:41:59.804Z,12.18
2022-09-23T07:44:32.485Z,12.18
2022-09-23T07:47:05.068Z,12.35
2022-09-23T07:49:38.057Z,12.59
2022-09-23T07:52:10.444Z,12.87
2022-09-23T07:54:42.777Z,13.08
2022-09-23T07:57:15.104Z,13.22
2022-09-23T07:59:47.446Z,13.49
2022-09-23T08:02:20.016Z,13.67
2022-09-23T08:04:53.250Z,13.83
2022-09-23T08:07:25.554Z,14.01
2022-09-23T08:09:57.838Z,14.16
2022-09-23T08:12:30.175Z,14.28
2022-09-23T08:15:03.020Z,14.50
2022-09-23T08:17:35.300Z,14.62
2022-09-23T08:20:07.938Z,14.77
2022-09-23T08:22:40.244Z,14.94
2022-09-23T08:25:12.565Z,15.05
2022-09-23T08:27:45.740Z,15.19
2022-09-23T08:30:18.089Z,15.18
2022-09-23T08:32:51.301Z,15.35
2022-09-23T08:35:23.634Z,15.69
2022-09-23T08:37:55.950Z,15.86
2022-09-23T08:40:28.588Z,15.96
2022-09-23T08:43:01.266Z,16.01
2022-09-23T08:45:34.534Z,16.11
2022-09-23T08:48:17.446Z,16.00
2022-09-23T08:50:52.006Z,16.08
2022-09-23T08:53:26.255Z,16.02
2022-09-23T08:55:59.673Z,16.14
2022-09-23T08:58:45.908Z,16.28
2022-09-23T09:01:34.405Z,16.47
2022-09-23T09:04:22.930Z,16.86
2022-09-23T09:07:24.463Z,17.09
2022-09-23T09:10:06.599Z,17.42
2022-09-23T09:12:40.842Z,17.73
2022-09-23T09:15:15.234Z,17.83
2022-09-23T09:17:53.720Z,18.12
2022-09-23T09:20:49.891Z,18.47
2022-09-23T09:23:23.599Z,18.62
2022-09-23T09:25:59.367Z,18.81
2022-09-23T09:28:40.932Z,19.08
2022-09-23T09:31:32.272Z,19.45
2022-09-23T09:34:06.233Z,19.71
2022-09-23T09:36:44.759Z,20.10
2022-09-23T09:39:17.273Z,20.27
2022-09-23T09:41:50.573Z,20.55
2022-09-23T09:44:26.738Z,20.93
2022-09-23T09:47:08.697Z,21.08
2022-09-23T09:49:40.966Z,21.15
2022-09-23T09:52:22.566Z,21.23
2022-09-23T09:54:56.371Z,21.18
2022-09-23T09:57:33.612Z,21.52
2022-09-23T10:00:26.697Z,21.77
2022-09-23T10:03:05.005Z,21.67
2022-09-23T10:05:46.569Z,21.57
2022-09-23T10:08:24.494Z,21.82
2022-09-23T10:11:16.249Z,21.90
2022-09-23T10:13:57.706Z,21.58
2022-09-23T10:16:31.809Z,21.54
2022-09-23T10:19:12.336Z,21.80
2022-09-23T10:21:51.057Z,21.77
2022-09-23T10:24:25.859Z,21.98
2022-09-23T10:27:09.160Z,22.23
2022-09-23T10:29:47.652Z,21.94
2022-09-23T10:32:36.425Z,21.67
2022-09-23T10:35:14.678Z,21.53
2022-09-23T10:37:51.602Z,21.22
2022-09-23T10:40:48.377Z,21.18
2022-09-23T10:44:06.018Z,21.27
2022-09-23T10:46:47.477Z,21.21
2022-09-23T10:49:28.670Z,21.17
2022-09-23T10:52:14.634Z,20.90
2022-09-23T10:55:05.769Z,20.77
2022-09-23T10:57:57.646Z,20.68
2022-09-23T11:00:41.806Z,20.58
2022-09-23T11:03:14.154Z,20.57
2022-09-23T11:05:55.704Z,20.70
2022-09-23T11:08:40.261Z,20.76
2022-09-23T11:11:16.657Z,20.79
2022-09-23T11:14:05.274Z,20.86
2022-09-23T11:16:41.033Z,21.00
2022-09-23T11:19:14.333Z,20.96
2022-09-23T11:22:00.357Z,20.80
2022-09-23T11:24:51.936Z,20.89
2022-09-23T11:27:43.076Z,21.31
2022-09-23T11:30:17.972Z,21.70
2022-09-23T11:35:47.585Z,22.02
2022-09-23T11:38:25.812Z,22.19
2022-09-23T11:41:01.647Z,22.28
2022-09-23T11:43:39.863Z,22.11
2022-09-23T11:46:18.362Z,21.99
2022-09-23T11:48:55.792Z,21.99
2022-09-23T11:51:34.911Z,22.22
2022-09-23T11:54:10.004Z,22.23
2022-09-23T11:56:48.162Z,22.02
2022-09-23T11:59:39.722Z,22.30
2022-09-23T12:02:29.601Z,22.67
2022-09-23T12:05:03.159Z,22.88
2022-09-23T12:07:48.130Z,23.01
2022-09-23T12:10:21.149Z,22.79
2022-09-23T12:13:12.198Z,22.78
2022-09-23T12:16:03.248Z,22.40
2022-09-23T12:18:59.289Z,21.60
2022-09-23T12:21:55.860Z,20.78
2022-09-23T12:24:45.812Z,20.58
2022-09-23T12:27:23.889Z,20.54
2022-09-23T12:30:02.049Z,20.45
2022-09-23T12:32:34.373Z,20.29
2022-09-23T12:35:07.755Z,20.20
2022-09-23T12:37:40.001Z,20.01
2022-09-23T12:40:21.780Z,19.78
2022-09-23T12:42:54.491Z,19.88
2022-09-23T12:45:27.933Z,20.02
2022-09-23T12:48:00.183Z,20.16
2022-09-23T12:50:48.141Z,20.24
2022-09-23T12:53:35.514Z,20.31
2022-09-23T12:56:15.048Z,19.98
2022-09-23T12:58:47.318Z,19.71
2022-09-23T13:01:23.763Z,19.50
2022-09-23T13:04:16.403Z,19.43
2022-09-23T13:07:03.711Z,19.35
2022-09-23T13:09:43.206Z,19.38
2022-09-23T13:12:18.340Z,19.42
2022-09-23T13:14:53.156Z,19.27
2022-09-23T13:17:51.880Z,19.29
2022-09-23T13:20:36.650Z,19.37
2022-09-23T13:23:28.496Z,19.31
2022-09-23T13:26:08.759Z,19.57
2022-09-23T13:28:59.453Z,19.88
2022-09-23T13:31:31.996Z,19.91
2022-09-23T13:34:05.833Z,19.70
2022-09-23T13:36:45.302Z,19.48
2022-09-23T13:39:26.169Z,19.38
2022-09-23T13:42:00.893Z,19.35
2022-09-23T13:44:33.202Z,19.15
2022-09-23T13:47:05.489Z,18.91
2022-09-23T13:49:38.044Z,18.79
2022-09-23T13:52:30.874Z,18.77
2022-09-23T13:55:03.270Z,18.80
2022-09-23T13:57:35.670Z,18.79
2022-09-23T14:00:18.980Z,18.76
2022-09-23T14:02:53.021Z,18.60
2022-09-23T14:05:27.320Z,18.56
2022-09-23T14:08:00.773Z,18.52
2022-09-23T14:10:33.905Z,18.59
2022-09-23T14:13:06.242Z,18.52
2022-09-23T14:15:38.721Z,18.54
2022-09-23T14:18:16.077Z,18.58
2022-09-23T14:20:50.179Z,18.59
2022-09-23T14:23:22.668Z,18.58
2022-09-23T14:25:55.599Z,18.48
2022-09-23T14:28:28.419Z,18.45
2022-09-23T14:31:02.404Z,18.39
2022-09-23T14:33:39.230Z,18.25
2022-09-23T14:36:35.560Z,18.16
2022-09-23T14:39:10.221Z,17.95
2022-09-23T14:41:44.915Z,17.62
2022-09-23T14:44:21.606Z,17.55
2022-09-23T14:46:58.226Z,17.53
2022-09-23T14:49:32.510Z,17.61
2022-09-23T14:52:06.850Z,17.63
2022-09-23T14:54:39.141Z,17.68
2022-09-23T14:57:17.511Z,17.69
2022-09-23T15:00:00.657Z,17.68
2022-09-23T15:02:37.557Z,17.60
2022-09-23T15:05:09.954Z,17.57
2022-09-23T15:07:44.218Z,17.53
2022-09-23T15:10:23.555Z,17.50
2022-09-23T15:13:02.484Z,17.48
2022-09-23T15:15:35.688Z,17.46
2022-09-23T15:18:14.336Z,17.46
2022-09-23T15:21:00.677Z,17.44
2022-09-23T15:23:35.057Z,17.45
2022-09-23T15:26:11.420Z,17.43
2022-09-23T15:28:44.173Z,17.33
2022-09-23T15:31:18.015Z,17.21
2022-09-23T15:33:50.866Z,16.98
2022-09-23T15:36:25.893Z,16.92
2022-09-23T15:39:04.830Z,16.92
2022-09-23T15:41:37.198Z,16.94
2022-09-23T15:44:17.325Z,16.98
2022-09-23T15:46:51.859Z,17.03
2022-09-23T15:49:28.813Z,17.14
2022-09-23T15:52:01.735Z,17.25
2022-09-23T15:54:34.440Z,17.37
2022-09-23T15:57:06.813Z,17.50
2022-09-23T15:59:39.122Z,17.55
2022-09-23T16:02:18.755Z,17.58
2022-09-23T16:04:52.354Z,17.56
2022-09-23T16:07:24.912Z,17.51
2022-09-23T16:09:58.779Z,17.45
2022-09-23T16:12:31.366Z,17.37
2022-09-23T16:15:03.823Z,17.28
2022-09-23T16:17:37.618Z,17.21
2022-09-23T16:20:10.500Z,17.16
2022-09-23T16:22:43.237Z,17.10
2022-09-23T16:25:15.657Z,17.03
2022-09-23T16:27:47.994Z,16.96
2022-09-23T16:30:20.348Z,16.92
2022-09-23T16:32:52.968Z,16.79
2022-09-23T16:35:26.860Z,16.72
2022-09-23T16:37:59.190Z,16.62
2022-09-23T16:40:31.939Z,16.53
2022-09-23T16:43:05.563Z,16.45
2022-09-23T16:45:38.635Z,16.37
2022-09-23T16:48:11.574Z,16.28
2022-09-23T16:50:44.113Z,16.19
2022-09-23T16:53:18.017Z,16.13
2022-09-23T16:55:50.424Z,16.02
2022-09-23T16:58:22.737Z,15.98
2022-09-23T17:01:16.763Z,15.94
2022-09-23T17:03:49.104Z,15.88
2022-09-23T17:06:23.855Z,15.81
2022-09-23T17:08:58.256Z,15.74
2022-09-23T17:11:33.973Z,15.65
2022-09-23T17:14:06.603Z,15.59
2022-09-23T17:16:39.138Z,15.52
2022-09-23T17:19:11.850Z,15.47
2022-09-23T17:21:44.704Z,15.37
2022-09-23T17:24:17.004Z,15.31
2022-09-23T17:26:52.853Z,15.25
2022-09-23T17:29:26.813Z,15.21
2022-09-23T17:31:59.260Z,15.15
2022-09-23T17:34:33.401Z,15.12
2022-09-23T17:37:05.841Z,15.11
2022-09-23T17:39:38.297Z,15.10
2022-09-23T17:42:10.717Z,15.10
2022-09-23T17:44:43.103Z,15.09
2022-09-23T17:47:15.420Z,15.04
2022-09-23T17:49:49.401Z,15.00
2022-09-23T17:52:21.715Z,14.96
2022-09-23T17:54:54.951Z,14.92
2022-09-23T17:57:27.296Z,14.88
2022-09-23T17:59:59.656Z,14.82
2022-09-23T18:02:32.173Z,14.78
2022-09-23T18:05:05.359Z,14.74
2022-09-23T18:07:37.704Z,14.68
2022-09-23T18:10:10.185Z,14.63
2022-09-23T18:12:42.505Z,14.57
2022-09-23T18:15:18.165Z,14.54
2022-09-23T18:17:53.670Z,14.53
2022-09-23T18:20:26.051Z,14.55
2022-09-23T18:22:58.832Z,14.59
2022-09-23T18:25:39.624Z,14.62
2022-09-23T18:28:12.333Z,14.66
2022-09-23T18:30:57.721Z,14.69
2022-09-23T18:33:30.019Z,14.71
2022-09-23T18:36:02.827Z,14.72
2022-09-23T18:38:35.106Z,14.71
2022-09-23T18:41:08.024Z,14.69
2022-09-23T18:43:44.029Z,14.66
2022-09-23T18:46:20.880Z,14.65
2022-09-23T18:49:11.735Z,14.60
2022-09-23T18:51:56.895Z,14.53
2022-09-23T18:54:29.367Z,14.51
2022-09-23T18:57:02.072Z,14.49
2022-09-23T18:59:35.261Z,14.45
2022-09-23T19:02:10.945Z,14.41
2022-09-23T19:04:43.390Z,14.34
2022-09-23T19:07:16.202Z,14.36
2022-09-23T19:09:51.923Z,14.33
2022-09-23T19:12:24.391Z,14.27
2022-09-23T19:14:57.867Z,14.17
2022-09-23T19:17:30.590Z,14.13
2022-09-23T19:20:04.736Z,14.11
2022-09-23T19:22:38.393Z,14.02
2022-09-23T19:25:11.215Z,13.94
2022-09-23T19:27:43.720Z,13.88
2022-09-23T19:30:19.139Z,13.82
2022-09-23T19:32:52.560Z,13.78
2022-09-23T19:35:24.945Z,13.73
2022-09-23T19:37:57.818Z,13.72
2022-09-23T19:40:30.304Z,13.69
2022-09-23T19:43:05.505Z,13.67
2022-09-23T19:45:38.508Z,13.64
2022-09-23T19:48:11.229Z,13.62
2022-09-23T19:50:48.620Z,13.60
2022-09-23T19:53:23.725Z,13.60
2022-09-23T19:56:03.239Z,13.60
2022-09-23T19:58:37.292Z,13.59
2022-09-23T20:01:10.100Z,13.57
2022-09-23T20:03:43.616Z,13.55
2022-09-23T20:06:17.809Z,13.54
2022-09-23T20:08:51.716Z,13.53
2022-09-23T20:11:28.609Z,13.53
2022-09-23T20:14:04.148Z,13.54
2022-09-23T20:16:37.266Z,13.54
2022-09-23T20:19:11.923Z,13.52
2022-09-23T20:21:44.367Z,13.52
2022-09-23T20:24:16.714Z,13.50
2022-09-23T20:27:07.624Z,13.48
2022-09-23T20:29:39.956Z,13.43
2022-09-23T20:32:12.291Z,13.41
2022-09-23T20:34:48.581Z,13.38
2022-09-23T20:37:21.249Z,13.36
2022-09-23T20:39:53.627Z,13.32
2022-09-23T20:42:27.465Z,13.28
2022-09-23T20:45:01.250Z,13.25
2022-09-23T20:47:35.976Z,13.21
2022-09-23T20:50:08.477Z,13.16
2022-09-23T20:52:41.421Z,13.15
2022-09-23T20:55:13.769Z,13.11
2022-09-23T20:57:47.955Z,13.04
2022-09-23T21:00:20.266Z,13.00
2022-09-23T21:02:52.641Z,12.95
2022-09-23T21:05:24.991Z,12.92
2022-09-23T21:08:02.155Z,12.89
2022-09-23T21:10:35.783Z,12.85
2022-09-23T21:13:08.104Z,12.83
2022-09-23T21:15:41.660Z,12.79
2022-09-23T21:18:17.126Z,12.73
2022-09-23T21:20:55.312Z,12.70
2022-09-23T21:23:28.422Z,12.70
2022-09-23T21:26:04.770Z,12.71
2022-09-23T21:28:38.620Z,12.71
2022-09-23T21:31:13.100Z,12.71
2022-09-23T21:33:45.487Z,12.71
2022-09-23T21:36:17.773Z,12.69
2022-09-23T21:38:50.779Z,12.69
2022-09-23T21:41:23.705Z,12.69
2022-09-23T21:43:57.227Z,12.69
2022-09-23T21:46:30.387Z,12.70
2022-09-23T21:49:03.682Z,12.68
2022-09-23T21:51:40.986Z,12.67
2022-09-23T21:54:15.565Z,12.67
2022-09-23T21:56:47.942Z,12.69
2022-09-23T21:59:20.217Z,12.68
2022-09-23T22:01:54.363Z,12.65
2022-09-23T22:04:26.825Z,12.61
2022-09-23T22:07:00.578Z,12.57
2022-09-23T22:09:33.012Z,12.54
2022-09-23T22:12:05.435Z,12.52
2022-09-23T22:14:38.866Z,12.49
2022-09-23T22:17:15.643Z,12.48
2022-09-23T22:19:48.681Z,12.45
2022-09-23T22:22:21.032Z,12.43
2022-09-23T22:24:53.428Z,12.40
2022-09-23T22:27:27.258Z,12.36
2022-09-23T22:30:18.338Z,12.35
2022-09-23T22:32:55.023Z,12.33
2022-09-23T22:35:27.648Z,12.32
2022-09-23T22:38:01.008Z,12.31
2022-09-23T22:40:33.454Z,12.32
2022-09-23T22:43:05.818Z,12.32
2022-09-23T22:45:39.537Z,12.33
2022-09-23T22:48:12.124Z,12.35
2022-09-23T22:50:45.701Z,12.36
2022-09-23T22:53:18.066Z,12.38
2022-09-23T22:55:57.188Z,12.38
2022-09-23T22:58:32.564Z,12.38
2022-09-23T23:01:05.426Z,12.39
2022-09-23T23:03:39.202Z,12.41
2022-09-23T23:06:11.759Z,12.36
2022-09-23T23:08:44.037Z,12.32
2022-09-23T23:11:16.383Z,12.29
2022-09-23T23:13:48.864Z,12.28
2022-09-23T23:16:25.159Z,12.27
2022-09-23T23:18:57.667Z,12.27
2022-09-23T23:21:30.514Z,12.26
2022-09-23T23:24:05.930Z,12.25
2022-09-23T23:26:38.314Z,12.23
2022-09-23T23:29:11.738Z,12.22
2022-09-23T23:31:44.606Z,12.23
2022-09-23T23:34:18.254Z,12.21
2022-09-23T23:36:54.735Z,12.20
2022-09-23T23:39:27.527Z,12.21
2022-09-23T23:42:00.349Z,12.24
2022-09-23T23:44:34.110Z,12.25
2022-09-23T23:47:06.554Z,12.25
2022-09-23T23:49:38.864Z,12.23
2022-09-23T23:52:12.276Z,12.20
2022-09-23T23:54:44.595Z,12.14
2022-09-23T23:57:16.875Z,12.11
2022-09-23T23:59:49.464Z,12.09
